Lynden, Washington
Current Conditions -  °F | °C
As of 2:00 AM on Sunday 23 Nov 2014 (Local Time) from CYXX Reporting Station
Light Rain Light Rain  
Wind Chill: 39°   Ceiling: 4000
Heat Index: 45°   Visibility: 8mi
Dew Point: 45°   Wind: 10mph
Humidity: 100%   Direction: 250°WSW
Pressure: 30.08"   Gusts: NA
Location:  48.94°N, 122.45°W
Report Text: CYXX 231000Z 25009KT 8SM -RA BKN040 OVC060 07/07 A3008 RMK SC7SC1 SLP187
Loading
Personal Weather Stations






























Interactive Weather Map New forecast layout! Learn more

10-Day Weather Forecast

Advertisements
Track Severe Weather on mobile